Auburn, Washington
Current Conditions -  °F | °C
As of 4:53 AM on Friday 31 Oct 2014 (Local Time) from KSEA Reporting Station
Light Rain Light Rain  
Wind Chill: 51°   Ceiling: 3500
Heat Index: 51°   Visibility: 10mi
Dew Point: 49°   Wind: 0mph
Humidity: 92%   Direction: NA
Pressure: 29.72"   Gusts: NA
Location:  47.31°N, 122.23°W
Report Text: KSEA 311153Z 00000KT 10SM -RA OVC035 11/09 A2972 RMK AO2 RAB07E24B47 SLP069 P0001 60043 70118 T01060094 10122 20100 58019
Loading
Personal Weather Stations






























Interactive Weather Map
Tropical Storm Tracking
New forecast layout! Learn more

10-Day Weather Forecast

Advertisements
Track Severe Weather on mobile